Search for airport 
image banner adimage banner adimage banner ad
image banner ad

CA40 - Central Valley Aviation Inc

Located in Selma, United States

ICAO - CA40, IATA -

Data provided by Airmate  

General information

Coordinates: N36°31'17" W119°40'12"
Elevation is 276 feet MSL.
Magnetic variation is 15° East
View others Airports in California

Operational data

Special qualification required
Current time UTC:
Current local time:
Weather at : KHJO - Hanford Muni ( 23 km )
METAR: KHJO 141253Z AUTO 30007KT 10SM CLR 18/14 A2998 RMK AO2 SLP153 T01830144
View NOTAMs / SUP AIP / TFR affecting this airport [VIEW]
Communications frequencies: [VIEW]

Runways:

RWY identifierQFULength (ft)Width (ft)SurfaceLDA (ft)
N2600150OTHER
S2600150OTHER

Airport contact information

Address: Selma United States

Satellite view of CA40